ACT        NSW        VIC        QLD        SA        WA        TAS        NT        INFO        CALC            by VK5ZD

  Atmospheric Gas Attenuation - ITU Rec 676-11   --------------- db/100km ---------------
SA Stations Date Time Temp RH % AH g/m3 Dew Point Wind Direction Speed kph Gust kph Barometer mB Rainfall Since 9am 24GHz 47GHz 76GHz 122GHz 134GHz 241GHz
Adelaide (West Terrace / Ngayirdapira) 15 00:40 12 92 9.81 10.7 7 9 1016 4.6 22.3 28.6 45.9 120.8 117.7 405.8
Adelaide Airport 15 00:40 11.9 86 9.11 9.6 20 22 1016.4 0.8 20.8 27.4 43.0 113.0 108.1 372.2
Clare 15 00:40 11.4 97 9.96 10.9 15 24 1015.6 5.4 22.6 29.0 46.9 123.4 120.8 416.4
Edinburgh 15 00:40 13 89 10.09 11.2 13 15 1016.1 1 22.8 28.7 46.6 122.4 120.1 414.4
Kadina 15 00:40 12.3 90 9.77 10.7 24 28 1017.1 0.8 22.2 28.5 45.6 120.0 116.8 402.6
Kuitpo 15 00:40 8.2 100 8.38 8.2 17 20 1015.3 2 19.4 27.3 41.9 109.9 102.9 353.4
Mount Crawford 15 00:40 8.6 98 8.42 8.3 19 20 1015.6 4.6 19.5 27.2 41.9 109.8 102.9 353.6
Mount Lofty 15 00:40 7.8 99 8.08 7.6 7 9 1013.1 13.6 18.8 26.8 40.7 106.8 99.0 339.7
Noarlunga 15 00:40 10.7 93 9.14 9.6 15 19 1013.1 19.4 20.9 27.7 43.7 114.8 109.9 378.5
Nuriootpa 15 00:40 10.3 96 9.2 9.7 11 11 1016 3 21.1 28.1 44.3 116.4 111.6 384.3
Parafield 15 00:40 12.4 90 9.83 10.8 7 9 1016 2.8 22.3 28.5 45.8 120.4 117.4 404.7
Roseworthy 15 00:40 11.6 97 10.08 11.1 7 7 1015.5 3.4 22.9 29.2 47.3 124.5 122.2 421.3
Snowtown 15 00:40 12.9 93 10.48 11.8 20 24 1016 1.8 23.7 29.5 48.3 127.1 125.8 434.3
---
Arkaroola 14 15:00 20.3 40 7.03 6.4 17 1013.1 0 16.0 21.8 31.1 81.3 72.1 247.2
Cape Borda 15 00:40 10.3 95 9.1 9.5 20 24 1019 0.4 20.8 28.0 44.0 115.6 110.5 380.2
Cape Jaffa 15 00:40 7.7 88 7.14 5.8 19 22 1019 3.8 16.7 25.5 37.1 97.0 86.5 296.1
Cape Willoughby 15 00:40 11.3 86 8.77 9 37 43 1018.5 7.6 20.1 27.1 42.0 110.3 104.4 359.2
Ceduna 15 00:40 13.2 95 10.91 12.4 9 11 1020.6 1.2 24.6 30.3 50.2 132.2 132.0 455.8
Cleve Airport 15 00:40 11.8 94 9.89 10.9 22 24 1018.8 0.8 22.5 28.9 46.5 122.4 119.4 411.8
Coober Pedy Airport 15 00:40 10.1 64 6.05 3.6 13 13 1020.7 0 14.3 23.1 31.8 82.8 69.9 238.1
Coonawarra 15 00:40 7.3 86 6.8 5.1 9 11 1019.7 4 16.0 25.1 35.9 93.8 82.4 281.5
Cultana (Defence) 15 00:40 12.3 83 9.01 9.6 17 20 1013.1 0.2 20.5 27.0 42.2 111.0 105.9 364.5
Cummins Airport 15 00:40 12.4 95 10.38 11.6 13 13 1019.6 2.8 23.5 29.6 48.4 127.2 125.6 433.3
Edithburgh 15 00:40 11.9 85 9 9.4 32 37 1017.4 7 20.5 27.3 42.6 111.9 106.7 367.1
Ernabella/Pukatja 15 00:40 14.3 63 7.74 7.4 11 15 1021.9 0 17.7 24.7 36.5 95.6 87.3 299.6
Hindmarsh Island 15 00:40 10.1 97 9.17 9.6 22 24 1017.4 7.6 21.0 28.1 44.3 116.5 111.6 384.2
Keith West 15 00:40 8.1 96 7.99 7.5 17 19 1017.6 10 18.5 26.7 40.4 105.8 97.7 335.2
Kingscote 15 00:40 11.5 86 8.88 9.2 20 24 1018.3 3.6 20.3 27.2 42.4 111.2 105.6 363.5
Kyancutta 14 15:00 17.7 68 10.26 11.7 20 1015.7 0.4 22.9 27.5 44.5 117.1 115.2 397.9
Lameroo Aws 15 00:40 8.8 97 8.45 8.3 20 24 1016.1 0.2 19.5 27.3 41.9 110.0 103.1 354.3
Leigh Creek 15 00:40 13.3 71 8.2 8.2 19 20 1018.8 0 18.8 25.6 38.7 101.4 94.2 323.6
Loxton 15 00:40 10.7 97 9.53 10.2 11 11 1015.5 18.4 21.7 28.5 45.5 119.5 115.7 398.5
Marree Airport 15 00:40 11.1 72 7.25 6.3 13 13 1019.3 0 16.8 24.7 36.0 94.1 84.3 288.6
Minlaton Airport 15 00:40 11.2 90 9.12 9.6 30 33 1017.2 0 20.8 27.7 43.5 114.2 109.3 376.3
Minnipa Rs 15 00:40 11.3 93 9.49 10.2 7 9 1020.4 1.2 21.6 28.4 45.2 118.7 114.7 395.0
Moomba Airport 15 00:40 13 71 8.05 7.9 15 17 1017.6 0 18.4 25.4 38.2 100.1 92.5 317.6
Mount Gambier 15 00:40 5.4 97 6.77 5 9 11 1020.2 2.6 16.0 25.6 36.6 95.8 84.1 287.1
Naracoorte 15 00:40 7.6 89 7.17 5.9 11 13 1019.1 4 16.8 25.6 37.2 97.4 87.1 297.9
Nullarbor 15 00:40 10.2 96 9.14 9.6 7 9 1021.8 0 20.9 28.2 44.4 116.5 111.5 383.6
Oodnadatta 15 00:40 14.3 48 5.9 3.5 7 7 1020.9 0 13.8 21.9 29.6 77.2 64.5 219.8
Padthaway 15 00:40 7.9 93 7.64 6.8 15 19 1013.1 2.6 17.8 26.0 38.8 101.7 92.7 317.8
Pallamana 15 00:40 10.4 100 9.64 10.4 19 20 1017 0.2 22.0 28.9 46.2 121.4 117.9 406.1
Parawa West 15 00:40 8.3 99 8.35 8.1 24 32 1016.8 19 19.3 27.3 41.8 109.6 102.5 351.9
Parndana 15 00:40 9.9 96 8.97 9.3 15 17 1013.1 0.8 20.6 27.7 43.4 114.0 108.7 374.0
Point Avoid 15 00:40 14.2 80 9.77 10.8 24 30 1013.1 0.2 22.1 27.7 44.4 116.6 113.6 391.7
Port Augusta 15 00:40 12.6 85 9.4 10.1 17 17 1017.5 0 21.4 27.7 43.9 115.4 111.2 383.2
Port Lincoln Airport 15 00:39 13.3 90 10.4 11.7 17 19 1019.5 1.2 23.5 29.3 47.9 125.9 124.4 429.2
Port Pirie Airport Aws 15 00:40 13.8 91 10.84 12.4 24 28 1016.2 0 24.4 29.8 49.3 129.8 129.5 447.2
Portable Sa Golf (Dew) 14 16:20 15 79 10.13 11.4 4 11 1013.1 47.2 22.8 28.0 45.4 119.4 117.3 404.8
Renmark Airport 15 00:40 8.3 97 8.18 7.9 0 0 1014.9 9 19.0 26.9 40.9 107.4 99.9 343.0
Robe Airport 15 00:40 7.6 86 6.93 5.5 7 7 1019.3 2.2 16.3 25.2 36.3 94.8 83.8 286.5
Roxby Downs 15 00:40 12.3 82 8.9 9.3 13 15 1019.2 0 20.3 27.1 42.1 110.4 104.9 361.0
Stenhouse Bay 15 00:40 12 83 8.85 9.3 28 32 1018.4 0.2 20.2 27.0 42.0 110.2 104.6 359.8
Strathalbyn 15 00:40 9.4 98 8.87 9.1 19 20 1017.3 1 20.4 27.8 43.4 114.1 108.4 372.7
Tarcoola 15 00:40 9.7 87 8.02 7.6 11 11 1020.9 0 18.5 26.4 39.8 104.4 96.4 330.7
Whyalla 15 00:40 12.5 87 9.57 10.4 11 13 1017.2 0 21.7 28.1 44.7 117.4 113.7 391.8
Woomera 15 00:40 10.8 92 9.1 9.6 13 15 1019.2 0 20.8 27.9 43.7 114.8 109.8 377.8
Wudinna Airport 15 00:40 10.8 93 9.19 9.7 13 13 1020.1 3 21.0 28.1 44.2 116.0 111.1 382.6
Yunta 15 00:40 9.6 85 7.79 7.2 6 7 1015.9 0 18.0 25.9 38.7 101.4 93.0 318.8

Last Refresh: 15-Jun-2024 00:51:53

Bureau of Meteorology